Terminal Aerodrome Forecast
Issued by NWS

Home | Current Version | Previous Version | Text Only | Print | Product List | Glossary On
Versions: 1 2 3 4 5 6 7 8 9 10 11 12 13
600
FTUS42 TJSJ 301147
TAFJBQ
TAF
TJBQ 301147Z 3012/0112 11007KT P6SM VCSH BKN080 BKN120
     FM301300 08015G22KT P6SM VCTS SCT026CB SCT040 BKN060
     FM302300 09011KT P6SM FEW025 SCT060=

USA.gov is the U.S. government's official web portal to all federal, state and local government web resources and services.